sensor_id;sensor_type;location;lat;lon;timestamp;P1;durP1;ratioP1;P2;durP2;ratioP2
38911;SDS011;28444;48.056;14.408;2022-12-10T00:02:08;88.82;;;35.72;;
38911;SDS011;28444;48.056;14.408;2022-12-10T00:04:34;170.27;;;49.58;;
38911;SDS011;28444;48.056;14.408;2022-12-10T00:07:01;148.48;;;44.95;;
38911;SDS011;28444;48.056;14.408;2022-12-10T00:09:28;117.90;;;41.17;;
38911;SDS011;28444;48.056;14.408;2022-12-10T00:11:54;111.47;;;38.10;;
38911;SDS011;28444;48.056;14.408;2022-12-10T00:14:21;98.35;;;37.83;;
38911;SDS011;28444;48.056;14.408;2022-12-10T00:16:48;57.03;;;27.13;;
38911;SDS011;28444;48.056;14.408;2022-12-10T00:19:14;96.70;;;40.75;;
38911;SDS011;28444;48.056;14.408;2022-12-10T00:21:41;59.78;;;27.65;;
38911;SDS011;28444;48.056;14.408;2022-12-10T00:24:09;45.63;;;22.85;;
38911;SDS011;28444;48.056;14.408;2022-12-10T00:26:37;38.83;;;21.33;;
38911;SDS011;28444;48.056;14.408;2022-12-10T00:29:05;78.25;;;37.63;;
38911;SDS011;28444;48.056;14.408;2022-12-10T00:31:34;69.10;;;34.58;;
38911;SDS011;28444;48.056;14.408;2022-12-10T00:34:03;79.45;;;37.97;;
38911;SDS011;28444;48.056;14.408;2022-12-10T00:36:35;61.58;;;31.83;;
38911;SDS011;28444;48.056;14.408;2022-12-10T00:39:05;55.55;;;27.25;;
38911;SDS011;28444;48.056;14.408;2022-12-10T00:41:32;52.03;;;26.75;;
38911;SDS011;28444;48.056;14.408;2022-12-10T00:43:59;71.22;;;30.42;;
38911;SDS011;28444;48.056;14.408;2022-12-10T00:46:26;50.03;;;23.90;;
38911;SDS011;28444;48.056;14.408;2022-12-10T00:48:53;51.28;;;25.05;;
38911;SDS011;28444;48.056;14.408;2022-12-10T00:51:21;46.92;;;24.35;;
38911;SDS011;28444;48.056;14.408;2022-12-10T00:53:49;46.90;;;24.15;;
38911;SDS011;28444;48.056;14.408;2022-12-10T00:56:19;42.92;;;22.23;;
38911;SDS011;28444;48.056;14.408;2022-12-10T00:58:47;47.63;;;23.83;;
38911;SDS011;28444;48.056;14.408;2022-12-10T01:01:21;43.58;;;21.35;;
38911;SDS011;28444;48.056;14.408;2022-12-10T01:03:51;40.03;;;20.02;;
38911;SDS011;28444;48.056;14.408;2022-12-10T01:06:21;39.90;;;19.90;;
38911;SDS011;28444;48.056;14.408;2022-12-10T01:08:54;39.08;;;19.10;;
38911;SDS011;28444;48.056;14.408;2022-12-10T01:11:24;33.95;;;18.67;;
38911;SDS011;28444;48.056;14.408;2022-12-10T01:13:53;40.33;;;20.23;;
38911;SDS011;28444;48.056;14.408;2022-12-10T01:16:20;36.65;;;18.35;;
38911;SDS011;28444;48.056;14.408;2022-12-10T01:18:47;35.67;;;19.33;;
38911;SDS011;28444;48.056;14.408;2022-12-10T01:21:15;35.75;;;18.73;;
38911;SDS011;28444;48.056;14.408;2022-12-10T01:23:47;41.58;;;19.80;;
38911;SDS011;28444;48.056;14.408;2022-12-10T01:26:17;40.92;;;19.63;;
38911;SDS011;28444;48.056;14.408;2022-12-10T01:28:46;42.38;;;20.15;;
38911;SDS011;28444;48.056;14.408;2022-12-10T01:31:18;37.42;;;19.45;;
38911;SDS011;28444;48.056;14.408;2022-12-10T01:33:49;33.05;;;17.85;;
38911;SDS011;28444;48.056;14.408;2022-12-10T01:36:17;45.03;;;20.15;;
38911;SDS011;28444;48.056;14.408;2022-12-10T01:38:45;37.28;;;19.52;;
38911;SDS011;28444;48.056;14.408;2022-12-10T01:41:23;35.80;;;17.73;;
38911;SDS011;28444;48.056;14.408;2022-12-10T01:47:01;36.53;;;20.38;;
38911;SDS011;28444;48.056;14.408;2022-12-10T01:49:32;37.05;;;18.92;;
38911;SDS011;28444;48.056;14.408;2022-12-10T01:52:00;39.55;;;19.80;;
38911;SDS011;28444;48.056;14.408;2022-12-10T01:54:30;34.47;;;18.23;;
38911;SDS011;28444;48.056;14.408;2022-12-10T01:56:59;36.50;;;19.33;;
38911;SDS011;28444;48.056;14.408;2022-12-10T01:59:34;35.85;;;20.02;;
38911;SDS011;28444;48.056;14.408;2022-12-10T02:05:25;39.95;;;19.83;;
38911;SDS011;28444;48.056;14.408;2022-12-10T02:08:05;38.25;;;19.55;;
38911;SDS011;28444;48.056;14.408;2022-12-10T02:11:16;34.80;;;19.48;;
38911;SDS011;28444;48.056;14.408;2022-12-10T02:13:59;42.58;;;22.25;;
38911;SDS011;28444;48.056;14.408;2022-12-10T02:16:40;39.42;;;20.35;;
38911;SDS011;28444;48.056;14.408;2022-12-10T02:19:16;41.60;;;20.63;;
38911;SDS011;28444;48.056;14.408;2022-12-10T02:22:04;42.28;;;21.90;;
38911;SDS011;28444;48.056;14.408;2022-12-10T02:24:33;40.85;;;22.13;;
38911;SDS011;28444;48.056;14.408;2022-12-10T02:27:23;39.28;;;20.52;;
38911;SDS011;28444;48.056;14.408;2022-12-10T02:29:57;42.65;;;20.13;;
38911;SDS011;28444;48.056;14.408;2022-12-10T02:32:27;42.17;;;20.05;;
38911;SDS011;28444;48.056;14.408;2022-12-10T02:35:00;42.65;;;21.35;;
38911;SDS011;28444;48.056;14.408;2022-12-10T02:37:34;37.72;;;20.40;;
38911;SDS011;28444;48.056;14.408;2022-12-10T02:40:06;39.80;;;21.48;;
38911;SDS011;28444;48.056;14.408;2022-12-10T02:42:38;39.28;;;22.63;;
38911;SDS011;28444;48.056;14.408;2022-12-10T02:45:08;39.15;;;20.27;;
38911;SDS011;28444;48.056;14.408;2022-12-10T02:47:35;36.83;;;19.45;;
38911;SDS011;28444;48.056;14.408;2022-12-10T02:50:05;44.83;;;22.27;;
38911;SDS011;28444;48.056;14.408;2022-12-10T02:52:36;48.35;;;21.60;;
38911;SDS011;28444;48.056;14.408;2022-12-10T02:55:02;43.20;;;20.58;;
38911;SDS011;28444;48.056;14.408;2022-12-10T02:58:06;49.28;;;22.45;;
38911;SDS011;28444;48.056;14.408;2022-12-10T03:00:32;53.53;;;26.17;;
38911;SDS011;28444;48.056;14.408;2022-12-10T03:03:16;58.53;;;26.67;;
38911;SDS011;28444;48.056;14.408;2022-12-10T03:05:58;42.78;;;22.33;;
38911;SDS011;28444;48.056;14.408;2022-12-10T03:08:33;46.40;;;21.58;;
38911;SDS011;28444;48.056;14.408;2022-12-10T03:11:22;37.08;;;19.67;;
38911;SDS011;28444;48.056;14.408;2022-12-10T03:16:54;40.17;;;19.27;;
38911;SDS011;28444;48.056;14.408;2022-12-10T03:21:55;32.90;;;17.55;;
38911;SDS011;28444;48.056;14.408;2022-12-10T03:24:24;33.17;;;19.25;;
38911;SDS011;28444;48.056;14.408;2022-12-10T03:26:53;36.33;;;19.23;;
38911;SDS011;28444;48.056;14.408;2022-12-10T03:29:24;33.55;;;18.23;;
38911;SDS011;28444;48.056;14.408;2022-12-10T03:31:57;32.55;;;17.88;;
38911;SDS011;28444;48.056;14.408;2022-12-10T03:34:25;50.83;;;21.92;;
38911;SDS011;28444;48.056;14.408;2022-12-10T03:36:53;53.97;;;23.75;;
38911;SDS011;28444;48.056;14.408;2022-12-10T03:39:20;45.38;;;21.13;;
38911;SDS011;28444;48.056;14.408;2022-12-10T03:41:47;44.83;;;20.60;;
38911;SDS011;28444;48.056;14.408;2022-12-10T03:44:13;46.95;;;22.20;;
38911;SDS011;28444;48.056;14.408;2022-12-10T03:46:53;49.08;;;21.98;;
38911;SDS011;28444;48.056;14.408;2022-12-10T03:49:20;48.55;;;22.90;;
38911;SDS011;28444;48.056;14.408;2022-12-10T03:51:47;52.60;;;24.08;;
38911;SDS011;28444;48.056;14.408;2022-12-10T03:54:13;61.92;;;26.13;;
38911;SDS011;28444;48.056;14.408;2022-12-10T03:56:40;45.33;;;23.77;;
38911;SDS011;28444;48.056;14.408;2022-12-10T03:59:07;56.78;;;24.33;;
38911;SDS011;28444;48.056;14.408;2022-12-10T04:01:33;48.53;;;23.48;;
38911;SDS011;28444;48.056;14.408;2022-12-10T04:04:00;41.85;;;20.35;;
38911;SDS011;28444;48.056;14.408;2022-12-10T04:06:28;50.70;;;23.48;;
38911;SDS011;28444;48.056;14.408;2022-12-10T04:08:55;45.85;;;21.33;;
38911;SDS011;28444;48.056;14.408;2022-12-10T04:11:24;38.83;;;21.00;;
38911;SDS011;28444;48.056;14.408;2022-12-10T04:13:50;39.97;;;19.63;;
38911;SDS011;28444;48.056;14.408;2022-12-10T04:16:36;35.55;;;18.73;;
38911;SDS011;28444;48.056;14.408;2022-12-10T04:19:05;43.20;;;21.73;;
38911;SDS011;28444;48.056;14.408;2022-12-10T04:21:34;36.70;;;20.27;;
38911;SDS011;28444;48.056;14.408;2022-12-10T04:24:22;39.83;;;18.65;;
38911;SDS011;28444;48.056;14.408;2022-12-10T04:27:51;35.92;;;19.63;;
38911;SDS011;28444;48.056;14.408;2022-12-10T04:30:04;33.88;;;18.00;;
38911;SDS011;28444;48.056;14.408;2022-12-10T04:32:33;37.22;;;19.92;;
38911;SDS011;28444;48.056;14.408;2022-12-10T04:35:00;59.22;;;20.90;;
38911;SDS011;28444;48.056;14.408;2022-12-10T04:37:27;44.90;;;19.15;;
38911;SDS011;28444;48.056;14.408;2022-12-10T04:39:54;36.92;;;19.80;;
38911;SDS011;28444;48.056;14.408;2022-12-10T04:42:21;36.72;;;18.45;;
38911;SDS011;28444;48.056;14.408;2022-12-10T04:44:48;32.63;;;17.58;;
38911;SDS011;28444;48.056;14.408;2022-12-10T04:47:15;35.92;;;18.65;;
38911;SDS011;28444;48.056;14.408;2022-12-10T04:49:42;40.38;;;19.50;;
38911;SDS011;28444;48.056;14.408;2022-12-10T04:52:11;41.88;;;20.35;;
38911;SDS011;28444;48.056;14.408;2022-12-10T04:54:39;33.17;;;19.55;;
38911;SDS011;28444;48.056;14.408;2022-12-10T04:57:06;38.75;;;19.85;;
38911;SDS011;28444;48.056;14.408;2022-12-10T04:59:33;37.58;;;18.73;;
38911;SDS011;28444;48.056;14.408;2022-12-10T05:02:01;36.22;;;18.15;;
38911;SDS011;28444;48.056;14.408;2022-12-10T05:04:28;36.92;;;19.15;;
38911;SDS011;28444;48.056;14.408;2022-12-10T05:06:54;34.75;;;19.00;;
38911;SDS011;28444;48.056;14.408;2022-12-10T05:09:21;38.95;;;20.45;;
38911;SDS011;28444;48.056;14.408;2022-12-10T05:11:48;38.80;;;19.38;;
38911;SDS011;28444;48.056;14.408;2022-12-10T05:14:15;43.53;;;19.60;;
38911;SDS011;28444;48.056;14.408;2022-12-10T05:16:42;33.15;;;17.38;;
38911;SDS011;28444;48.056;14.408;2022-12-10T05:19:09;39.25;;;18.85;;
38911;SDS011;28444;48.056;14.408;2022-12-10T05:21:37;36.92;;;18.08;;
38911;SDS011;28444;48.056;14.408;2022-12-10T05:24:22;34.40;;;18.67;;
38911;SDS011;28444;48.056;14.408;2022-12-10T05:26:49;45.08;;;20.15;;
38911;SDS011;28444;48.056;14.408;2022-12-10T05:29:17;35.30;;;19.50;;
38911;SDS011;28444;48.056;14.408;2022-12-10T05:31:45;37.22;;;19.00;;
38911;SDS011;28444;48.056;14.408;2022-12-10T05:34:11;42.42;;;19.85;;
38911;SDS011;28444;48.056;14.408;2022-12-10T05:36:38;43.83;;;19.17;;
38911;SDS011;28444;48.056;14.408;2022-12-10T05:39:05;37.22;;;19.52;;
38911;SDS011;28444;48.056;14.408;2022-12-10T05:41:34;39.38;;;19.85;;
38911;SDS011;28444;48.056;14.408;2022-12-10T05:44:02;41.55;;;19.75;;
38911;SDS011;28444;48.056;14.408;2022-12-10T05:46:29;33.60;;;17.75;;
38911;SDS011;28444;48.056;14.408;2022-12-10T05:48:58;41.65;;;18.98;;
38911;SDS011;28444;48.056;14.408;2022-12-10T05:51:27;34.30;;;19.55;;
38911;SDS011;28444;48.056;14.408;2022-12-10T05:53:56;38.00;;;19.27;;
38911;SDS011;28444;48.056;14.408;2022-12-10T05:56:24;42.42;;;20.42;;
38911;SDS011;28444;48.056;14.408;2022-12-10T05:58:53;32.45;;;17.75;;
38911;SDS011;28444;48.056;14.408;2022-12-10T06:01:23;34.38;;;18.70;;
38911;SDS011;28444;48.056;14.408;2022-12-10T06:03:51;39.70;;;20.00;;
38911;SDS011;28444;48.056;14.408;2022-12-10T06:06:22;36.38;;;19.65;;
38911;SDS011;28444;48.056;14.408;2022-12-10T06:08:50;33.15;;;17.83;;
38911;SDS011;28444;48.056;14.408;2022-12-10T06:11:17;35.00;;;18.50;;
38911;SDS011;28444;48.056;14.408;2022-12-10T06:13:44;36.55;;;18.77;;
38911;SDS011;28444;48.056;14.408;2022-12-10T06:16:11;35.72;;;19.80;;
38911;SDS011;28444;48.056;14.408;2022-12-10T06:18:39;40.80;;;19.48;;
38911;SDS011;28444;48.056;14.408;2022-12-10T06:21:10;40.03;;;20.42;;
38911;SDS011;28444;48.056;14.408;2022-12-10T06:23:39;36.17;;;19.30;;
38911;SDS011;28444;48.056;14.408;2022-12-10T06:26:07;38.03;;;21.13;;
38911;SDS011;28444;48.056;14.408;2022-12-10T06:31:05;36.53;;;17.55;;
38911;SDS011;28444;48.056;14.408;2022-12-10T06:33:33;38.78;;;20.90;;
38911;SDS011;28444;48.056;14.408;2022-12-10T06:36:02;39.97;;;21.05;;
38911;SDS011;28444;48.056;14.408;2022-12-10T06:38:29;40.55;;;20.58;;
38911;SDS011;28444;48.056;14.408;2022-12-10T06:40:56;37.85;;;21.00;;
38911;SDS011;28444;48.056;14.408;2022-12-10T06:43:23;42.00;;;21.38;;
38911;SDS011;28444;48.056;14.408;2022-12-10T06:45:49;42.30;;;23.00;;
38911;SDS011;28444;48.056;14.408;2022-12-10T06:48:16;40.00;;;19.48;;
38911;SDS011;28444;48.056;14.408;2022-12-10T06:50:43;39.42;;;21.05;;
38911;SDS011;28444;48.056;14.408;2022-12-10T06:53:09;40.97;;;21.67;;
38911;SDS011;28444;48.056;14.408;2022-12-10T06:55:36;39.88;;;20.02;;
38911;SDS011;28444;48.056;14.408;2022-12-10T06:58:04;40.22;;;21.52;;
38911;SDS011;28444;48.056;14.408;2022-12-10T07:00:31;40.47;;;20.85;;
38911;SDS011;28444;48.056;14.408;2022-12-10T07:02:58;40.65;;;21.70;;
38911;SDS011;28444;48.056;14.408;2022-12-10T07:05:25;41.95;;;23.08;;
38911;SDS011;28444;48.056;14.408;2022-12-10T07:07:51;48.15;;;25.27;;
38911;SDS011;28444;48.056;14.408;2022-12-10T07:10:18;199.05;;;105.18;;
38911;SDS011;28444;48.056;14.408;2022-12-10T07:12:45;279.63;;;149.90;;
38911;SDS011;28444;48.056;14.408;2022-12-10T07:15:11;342.33;;;173.73;;
38911;SDS011;28444;48.056;14.408;2022-12-10T07:17:38;175.75;;;87.88;;
38911;SDS011;28444;48.056;14.408;2022-12-10T07:20:05;148.65;;;84.25;;
38911;SDS011;28444;48.056;14.408;2022-12-10T07:22:32;62.20;;;32.97;;
38911;SDS011;28444;48.056;14.408;2022-12-10T07:24:59;58.63;;;30.17;;
38911;SDS011;28444;48.056;14.408;2022-12-10T07:27:25;50.78;;;29.48;;
38911;SDS011;28444;48.056;14.408;2022-12-10T07:29:52;49.58;;;26.65;;
38911;SDS011;28444;48.056;14.408;2022-12-10T07:32:19;56.25;;;28.88;;
38911;SDS011;28444;48.056;14.408;2022-12-10T07:34:46;57.88;;;28.42;;
38911;SDS011;28444;48.056;14.408;2022-12-10T07:37:12;57.63;;;26.23;;
38911;SDS011;28444;48.056;14.408;2022-12-10T07:39:39;56.78;;;27.85;;
38911;SDS011;28444;48.056;14.408;2022-12-10T07:42:05;53.10;;;28.00;;
38911;SDS011;28444;48.056;14.408;2022-12-10T07:44:32;51.28;;;25.25;;
38911;SDS011;28444;48.056;14.408;2022-12-10T07:46:58;61.40;;;28.55;;
38911;SDS011;28444;48.056;14.408;2022-12-10T07:49:25;53.17;;;27.52;;
38911;SDS011;28444;48.056;14.408;2022-12-10T07:51:52;49.65;;;25.95;;
38911;SDS011;28444;48.056;14.408;2022-12-10T07:54:18;46.83;;;26.48;;
38911;SDS011;28444;48.056;14.408;2022-12-10T07:56:46;53.78;;;27.50;;
38911;SDS011;28444;48.056;14.408;2022-12-10T07:59:12;52.47;;;28.25;;
38911;SDS011;28444;48.056;14.408;2022-12-10T08:01:39;49.40;;;26.75;;
38911;SDS011;28444;48.056;14.408;2022-12-10T08:04:06;49.20;;;25.42;;
38911;SDS011;28444;48.056;14.408;2022-12-10T08:06:33;50.22;;;24.05;;
38911;SDS011;28444;48.056;14.408;2022-12-10T08:09:01;48.20;;;25.90;;
38911;SDS011;28444;48.056;14.408;2022-12-10T08:11:27;55.53;;;26.88;;
38911;SDS011;28444;48.056;14.408;2022-12-10T08:13:54;49.90;;;26.00;;
38911;SDS011;28444;48.056;14.408;2022-12-10T08:16:23;52.22;;;26.58;;
38911;SDS011;28444;48.056;14.408;2022-12-10T08:18:52;56.20;;;29.00;;
38911;SDS011;28444;48.056;14.408;2022-12-10T08:21:20;55.22;;;27.17;;
38911;SDS011;28444;48.056;14.408;2022-12-10T08:23:48;52.45;;;27.52;;
38911;SDS011;28444;48.056;14.408;2022-12-10T08:26:16;51.67;;;25.77;;
38911;SDS011;28444;48.056;14.408;2022-12-10T08:28:46;50.72;;;27.13;;
38911;SDS011;28444;48.056;14.408;2022-12-10T08:31:13;50.80;;;27.27;;
38911;SDS011;28444;48.056;14.408;2022-12-10T08:33:41;49.30;;;27.15;;
38911;SDS011;28444;48.056;14.408;2022-12-10T08:36:09;50.28;;;26.08;;
38911;SDS011;28444;48.056;14.408;2022-12-10T08:38:38;48.55;;;25.85;;
38911;SDS011;28444;48.056;14.408;2022-12-10T08:41:09;60.38;;;28.60;;
38911;SDS011;28444;48.056;14.408;2022-12-10T08:43:37;52.83;;;26.40;;
38911;SDS011;28444;48.056;14.408;2022-12-10T08:46:03;57.90;;;29.75;;
38911;SDS011;28444;48.056;14.408;2022-12-10T08:48:32;51.40;;;27.48;;
38911;SDS011;28444;48.056;14.408;2022-12-10T08:51:00;57.42;;;30.15;;
38911;SDS011;28444;48.056;14.408;2022-12-10T08:53:27;55.35;;;27.50;;
38911;SDS011;28444;48.056;14.408;2022-12-10T08:55:53;56.03;;;27.98;;
38911;SDS011;28444;48.056;14.408;2022-12-10T08:58:20;54.95;;;28.40;;
38911;SDS011;28444;48.056;14.408;2022-12-10T09:00:48;52.25;;;26.67;;
38911;SDS011;28444;48.056;14.408;2022-12-10T09:03:15;49.78;;;27.73;;
38911;SDS011;28444;48.056;14.408;2022-12-10T09:05:45;47.15;;;27.35;;
38911;SDS011;28444;48.056;14.408;2022-12-10T09:08:12;45.97;;;23.83;;
38911;SDS011;28444;48.056;14.408;2022-12-10T09:10:39;51.70;;;27.25;;
38911;SDS011;28444;48.056;14.408;2022-12-10T09:13:06;49.65;;;27.00;;
38911;SDS011;28444;48.056;14.408;2022-12-10T09:15:33;50.28;;;26.45;;
38911;SDS011;28444;48.056;14.408;2022-12-10T09:18:00;49.40;;;25.60;;
38911;SDS011;28444;48.056;14.408;2022-12-10T09:20:27;52.47;;;25.80;;
38911;SDS011;28444;48.056;14.408;2022-12-10T09:22:53;49.75;;;27.38;;
38911;SDS011;28444;48.056;14.408;2022-12-10T09:25:20;53.15;;;27.27;;
38911;SDS011;28444;48.056;14.408;2022-12-10T09:27:47;51.70;;;26.05;;
38911;SDS011;28444;48.056;14.408;2022-12-10T09:30:14;49.50;;;25.13;;
38911;SDS011;28444;48.056;14.408;2022-12-10T09:32:41;49.05;;;23.77;;
38911;SDS011;28444;48.056;14.408;2022-12-10T09:35:08;46.10;;;24.60;;
38911;SDS011;28444;48.056;14.408;2022-12-10T09:37:34;44.38;;;24.30;;
38911;SDS011;28444;48.056;14.408;2022-12-10T09:40:01;46.45;;;22.77;;
38911;SDS011;28444;48.056;14.408;2022-12-10T09:42:50;44.40;;;23.10;;
38911;SDS011;28444;48.056;14.408;2022-12-10T09:45:30;49.15;;;24.88;;
38911;SDS011;28444;48.056;14.408;2022-12-10T09:48:10;46.97;;;25.15;;
38911;SDS011;28444;48.056;14.408;2022-12-10T09:53:31;42.72;;;23.75;;
38911;SDS011;28444;48.056;14.408;2022-12-10T09:55:59;45.33;;;24.42;;
38911;SDS011;28444;48.056;14.408;2022-12-10T09:58:26;53.88;;;24.25;;
38911;SDS011;28444;48.056;14.408;2022-12-10T10:01:00;46.38;;;24.05;;
38911;SDS011;28444;48.056;14.408;2022-12-10T10:03:33;52.13;;;26.13;;
38911;SDS011;28444;48.056;14.408;2022-12-10T10:06:04;45.72;;;25.73;;
38911;SDS011;28444;48.056;14.408;2022-12-10T10:08:37;46.33;;;23.55;;
38911;SDS011;28444;48.056;14.408;2022-12-10T10:11:28;53.40;;;25.60;;
38911;SDS011;28444;48.056;14.408;2022-12-10T10:14:06;51.63;;;25.45;;
38911;SDS011;28444;48.056;14.408;2022-12-10T10:17:01;47.17;;;24.90;;
38911;SDS011;28444;48.056;14.408;2022-12-10T10:19:33;43.97;;;23.80;;
38911;SDS011;28444;48.056;14.408;2022-12-10T10:22:03;45.65;;;25.88;;
38911;SDS011;28444;48.056;14.408;2022-12-10T10:24:35;43.28;;;23.58;;
38911;SDS011;28444;48.056;14.408;2022-12-10T10:27:19;51.83;;;25.92;;
38911;SDS011;28444;48.056;14.408;2022-12-10T10:29:55;48.42;;;24.08;;
38911;SDS011;28444;48.056;14.408;2022-12-10T10:32:28;44.65;;;24.70;;
38911;SDS011;28444;48.056;14.408;2022-12-10T10:35:23;47.67;;;24.20;;
38911;SDS011;28444;48.056;14.408;2022-12-10T10:37:52;46.88;;;24.20;;
38911;SDS011;28444;48.056;14.408;2022-12-10T10:40:28;49.55;;;24.70;;
38911;SDS011;28444;48.056;14.408;2022-12-10T10:43:05;47.58;;;24.77;;
38911;SDS011;28444;48.056;14.408;2022-12-10T10:45:40;43.47;;;23.00;;
38911;SDS011;28444;48.056;14.408;2022-12-10T10:48:12;53.78;;;24.90;;
38911;SDS011;28444;48.056;14.408;2022-12-10T10:50:42;47.25;;;23.92;;
38911;SDS011;28444;48.056;14.408;2022-12-10T10:53:30;56.58;;;26.00;;
38911;SDS011;28444;48.056;14.408;2022-12-10T10:56:24;51.22;;;25.55;;
38911;SDS011;28444;48.056;14.408;2022-12-10T10:58:57;58.13;;;28.05;;
38911;SDS011;28444;48.056;14.408;2022-12-10T11:01:46;52.78;;;25.48;;
38911;SDS011;28444;48.056;14.408;2022-12-10T11:04:16;51.35;;;25.05;;
38911;SDS011;28444;48.056;14.408;2022-12-10T11:06:55;42.38;;;21.85;;
38911;SDS011;28444;48.056;14.408;2022-12-10T11:09:30;49.30;;;25.08;;
38911;SDS011;28444;48.056;14.408;2022-12-10T11:12:01;48.13;;;24.02;;
38911;SDS011;28444;48.056;14.408;2022-12-10T11:14:33;48.92;;;26.48;;
38911;SDS011;28444;48.056;14.408;2022-12-10T11:20:00;51.72;;;24.63;;
38911;SDS011;28444;48.056;14.408;2022-12-10T11:22:40;52.70;;;25.58;;
38911;SDS011;28444;48.056;14.408;2022-12-10T11:25:16;47.22;;;24.33;;
38911;SDS011;28444;48.056;14.408;2022-12-10T11:27:56;50.25;;;24.02;;
38911;SDS011;28444;48.056;14.408;2022-12-10T11:30:30;51.97;;;25.05;;
38911;SDS011;28444;48.056;14.408;2022-12-10T11:33:49;43.40;;;22.27;;
38911;SDS011;28444;48.056;14.408;2022-12-10T11:36:18;47.10;;;23.17;;
38911;SDS011;28444;48.056;14.408;2022-12-10T11:42:27;48.25;;;23.15;;
38911;SDS011;28444;48.056;14.408;2022-12-10T11:51:24;39.60;;;21.92;;
38911;SDS011;28444;48.056;14.408;2022-12-10T11:57:19;52.90;;;24.13;;
38911;SDS011;28444;48.056;14.408;2022-12-10T12:12:40;55.08;;;25.48;;
38911;SDS011;28444;48.056;14.408;2022-12-10T12:15:32;45.20;;;23.67;;
38911;SDS011;28444;48.056;14.408;2022-12-10T12:18:06;53.45;;;23.77;;
38911;SDS011;28444;48.056;14.408;2022-12-10T12:21:04;44.40;;;21.98;;
38911;SDS011;28444;48.056;14.408;2022-12-10T12:23:46;56.08;;;25.52;;
38911;SDS011;28444;48.056;14.408;2022-12-10T12:26:28;52.03;;;25.33;;
38911;SDS011;28444;48.056;14.408;2022-12-10T12:29:41;61.58;;;26.30;;
38911;SDS011;28444;48.056;14.408;2022-12-10T12:31:59;49.25;;;23.55;;
38911;SDS011;28444;48.056;14.408;2022-12-10T12:37:44;50.22;;;23.42;;
38911;SDS011;28444;48.056;14.408;2022-12-10T12:40:26;49.45;;;24.70;;
38911;SDS011;28444;48.056;14.408;2022-12-10T12:43:04;50.70;;;25.38;;
38911;SDS011;28444;48.056;14.408;2022-12-10T12:45:42;54.42;;;26.52;;
38911;SDS011;28444;48.056;14.408;2022-12-10T12:51:21;47.20;;;22.45;;
38911;SDS011;28444;48.056;14.408;2022-12-10T12:53:53;55.30;;;25.98;;
38911;SDS011;28444;48.056;14.408;2022-12-10T12:59:54;48.33;;;23.25;;
38911;SDS011;28444;48.056;14.408;2022-12-10T13:03:17;54.25;;;23.80;;
38911;SDS011;28444;48.056;14.408;2022-12-10T13:05:38;54.03;;;25.00;;
38911;SDS011;28444;48.056;14.408;2022-12-10T13:11:33;52.58;;;24.15;;
38911;SDS011;28444;48.056;14.408;2022-12-10T13:14:28;54.17;;;25.27;;
38911;SDS011;28444;48.056;14.408;2022-12-10T13:17:38;46.38;;;21.90;;
38911;SDS011;28444;48.056;14.408;2022-12-10T13:23:02;47.97;;;24.77;;
38911;SDS011;28444;48.056;14.408;2022-12-10T13:25:41;48.80;;;23.42;;
38911;SDS011;28444;48.056;14.408;2022-12-10T13:31:21;71.53;;;34.28;;
38911;SDS011;28444;48.056;14.408;2022-12-10T13:34:22;46.88;;;25.48;;
38911;SDS011;28444;48.056;14.408;2022-12-10T13:37:17;51.85;;;25.10;;
38911;SDS011;28444;48.056;14.408;2022-12-10T13:40:02;47.25;;;22.85;;
38911;SDS011;28444;48.056;14.408;2022-12-10T13:42:34;130.07;;;56.45;;
38911;SDS011;28444;48.056;14.408;2022-12-10T13:45:26;79.70;;;35.80;;
38911;SDS011;28444;48.056;14.408;2022-12-10T13:57:03;58.30;;;26.48;;
38911;SDS011;28444;48.056;14.408;2022-12-10T14:07:46;52.90;;;25.30;;
38911;SDS011;28444;48.056;14.408;2022-12-10T14:10:18;58.17;;;26.08;;
38911;SDS011;28444;48.056;14.408;2022-12-10T14:12:48;46.22;;;23.35;;
38911;SDS011;28444;48.056;14.408;2022-12-10T14:15:19;50.50;;;25.48;;
38911;SDS011;28444;48.056;14.408;2022-12-10T14:17:54;50.13;;;23.83;;
38911;SDS011;28444;48.056;14.408;2022-12-10T14:20:29;48.63;;;24.52;;
38911;SDS011;28444;48.056;14.408;2022-12-10T14:23:02;47.65;;;25.33;;
38911;SDS011;28444;48.056;14.408;2022-12-10T14:25:50;55.55;;;24.45;;
38911;SDS011;28444;48.056;14.408;2022-12-10T14:28:18;52.35;;;23.35;;
38911;SDS011;28444;48.056;14.408;2022-12-10T14:30:46;47.75;;;25.92;;
38911;SDS011;28444;48.056;14.408;2022-12-10T14:33:18;58.67;;;27.42;;
38911;SDS011;28444;48.056;14.408;2022-12-10T14:35:48;57.25;;;26.70;;
38911;SDS011;28444;48.056;14.408;2022-12-10T14:38:37;50.60;;;26.40;;
38911;SDS011;28444;48.056;14.408;2022-12-10T14:41:02;51.03;;;25.10;;
38911;SDS011;28444;48.056;14.408;2022-12-10T14:46:03;54.83;;;27.92;;
38911;SDS011;28444;48.056;14.408;2022-12-10T14:48:38;52.28;;;27.23;;
38911;SDS011;28444;48.056;14.408;2022-12-10T14:51:12;54.20;;;27.15;;
38911;SDS011;28444;48.056;14.408;2022-12-10T14:53:41;56.50;;;27.40;;
38911;SDS011;28444;48.056;14.408;2022-12-10T14:56:08;52.30;;;25.83;;
38911;SDS011;28444;48.056;14.408;2022-12-10T14:58:45;53.35;;;27.88;;
38911;SDS011;28444;48.056;14.408;2022-12-10T15:01:30;64.28;;;30.70;;
38911;SDS011;28444;48.056;14.408;2022-12-10T15:03:58;61.78;;;28.13;;
38911;SDS011;28444;48.056;14.408;2022-12-10T15:06:27;58.42;;;27.20;;
38911;SDS011;28444;48.056;14.408;2022-12-10T15:08:55;63.50;;;27.02;;
38911;SDS011;28444;48.056;14.408;2022-12-10T15:11:25;61.60;;;30.10;;
38911;SDS011;28444;48.056;14.408;2022-12-10T15:13:54;62.30;;;29.80;;
38911;SDS011;28444;48.056;14.408;2022-12-10T15:16:29;61.90;;;30.47;;
38911;SDS011;28444;48.056;14.408;2022-12-10T15:19:07;58.35;;;26.27;;
38911;SDS011;28444;48.056;14.408;2022-12-10T15:21:44;54.72;;;25.10;;
38911;SDS011;28444;48.056;14.408;2022-12-10T15:24:14;54.40;;;26.75;;
38911;SDS011;28444;48.056;14.408;2022-12-10T15:26:49;50.25;;;25.40;;
38911;SDS011;28444;48.056;14.408;2022-12-10T15:31:54;53.47;;;26.83;;
38911;SDS011;28444;48.056;14.408;2022-12-10T15:34:25;57.25;;;26.05;;
38911;SDS011;28444;48.056;14.408;2022-12-10T15:37:01;56.97;;;27.25;;
38911;SDS011;28444;48.056;14.408;2022-12-10T15:39:30;53.75;;;24.65;;
38911;SDS011;28444;48.056;14.408;2022-12-10T15:42:04;58.80;;;27.20;;
38911;SDS011;28444;48.056;14.408;2022-12-10T15:49:40;59.30;;;29.43;;
38911;SDS011;28444;48.056;14.408;2022-12-10T15:52:14;57.50;;;27.80;;
38911;SDS011;28444;48.056;14.408;2022-12-10T15:54:43;51.47;;;26.20;;
38911;SDS011;28444;48.056;14.408;2022-12-10T15:57:12;54.17;;;28.00;;
38911;SDS011;28444;48.056;14.408;2022-12-10T15:59:43;55.67;;;28.90;;
38911;SDS011;28444;48.056;14.408;2022-12-10T16:04:53;54.07;;;26.27;;
38911;SDS011;28444;48.056;14.408;2022-12-10T16:07:20;60.70;;;31.77;;
38911;SDS011;28444;48.056;14.408;2022-12-10T16:09:46;66.35;;;30.80;;
38911;SDS011;28444;48.056;14.408;2022-12-10T16:12:14;61.42;;;30.17;;